Historyczne dane pomiarowe

Dodano dane terminowe – wersja testowa.

Dane z okresu 1951-2019

Wersja bazy: 1.34 [2019-03-16, lista zmian], aktualizacja planowana na 2019-04-15

Dane meteo z obszaru Polski uzyskane na podstawie danych udostępnionych przez Instytut Meteorologii i Gospodarki Wodnej – Państwowy Instytut Badawczy.

 

Wybierz Datę:    

       

TemperaturaWilgotnośćWiatrCiśnienieOpadyŚniegCzas trwania zjawisk
 Stacja t tx tn tng RH VA  wxwx mslp ppp RRR   cm mm wxwxwxwxwxwxwx
2019-06-29 17.2 22.8 11.2 9.0-- 0.0 0.3---- 0.0------------
2019-06-28 14.7 20.8 9.0 5.7-- 2.7 0.3---- 0.0------------
2019-06-27 22.8 25.8 19.8 16.5-- 0.0 1.7---- 0.0------------
2019-06-26 23.9 30.9 15.9 13.6-- 0.0 0.3---- 0.0------------
2019-06-25 20.9 28.9 12.4 10.1-- 0.0 0.0---- 0.0------------
2019-06-24 20.3 27.3 13.9 13.6-- 0.0 1.0---- 0.0------------
2019-06-23 17.9 20.3 15.4 14.6-- 7.3 1.0---- 0.0------------
2019-06-22 17.1 21.3 12.0 9.6-- 5.3 1.0---- 1.8------------
2019-06-21 18.2 22.8 13.9 11.6-- 8.0 0.0---- 1.5------------
2019-06-20 18.3 23.3 13.9 12.6-- 8.0 0.3---- 1.6------------
2019-06-19 19.2 24.8 13.4 10.6-- 6.0 0.7---- 11.6------------
2019-06-18 17.1 22.8 10.0 7.6-- 2.7 1.0---- 0.0------------
2019-06-17 15.3 19.8 13.4 12.6-- 4.0 0.3---- 8.0------------
2019-06-16 20.1 26.0 13.7 10.6-- 5.3 0.0---- 7.8------------
2019-06-15 23.3 30.4 15.9 12.8-- 0.0 0.7---- 0.0------------
2019-06-14 22.3 26.2 17.2 14.3-- 0.0 1.0---- 0.0------------
2019-06-13 21.0 26.8 16.3 14.1-- 0.0 1.0---- 0.0------------
2019-06-12 24.1 30.9 16.8 13.6-- 0.7 1.0---- 0.0------------
2019-06-11 22.5 28.9 13.9 11.6-- 0.0 0.7---- 0.0------------
2019-06-10 21.7 29.9 13.9 9.6-- 0.0 0.7---- 0.0------------
2019-06-09 16.7 22.9 8.9 7.1-- 0.0 1.7---- 0.0------------
2019-06-08 18.6 23.9 12.4 10.6-- 0.0 0.3---- 0.0------------
2019-06-07 18.0 24.8 12.1 9.8-- 4.0 0.7---- 4.0------------
2019-06-06 16.8 23.6 11.0 8.6-- 5.3 0.3---- 0.3------------
2019-06-05 17.0 23.3 10.0 7.8-- 4.7 0.3---- 0.0------------
2019-06-04 17.5 23.6 10.5 7.8-- 1.3 0.7---- 0.0------------
2019-06-03 17.7 24.3 9.0 7.0-- 0.7 1.0---- 0.0------------
2019-06-02 16.1 23.3 6.5 6.5-- 0.7 0.7---- 0.0------------
2019-06-01 14.6 20.8 6.5 3.2-- 8.0 1.0---- 0.4------------
2019-05-31 11.1 18.0 6.0 6.0-- 8.0 0.3---- 0.0------------
2019-05-30 7.4 9.3 6.0 6.0-- 8.0 0.3---- 8.9------------
2019-05-29 10.9 15.6 8.5 8.5-- 8.0 0.3---- 3.3------------
2019-05-28 16.5 19.3 14.1 12.1-- 6.0 2.3---- 8.8------------
2019-05-27 15.7 21.3 10.0 6.7-- 5.3 1.3---- 0.0------------
2019-05-26 14.6 20.3 7.5 7.2-- 2.0 1.3---- 0.0------------
2019-05-25 12.6 19.6 5.0 1.8-- 1.3 0.3---- 0.0------------
2019-05-24 10.0 12.0 8.0 6.7-- 5.3 0.0---- 0.0------------
2019-05-23 9.5 12.8 8.0 7.2-- 8.0 0.0---- 44.0------------
2019-05-22 12.3 15.8 10.5 8.6-- 8.0 1.7---- 34.8------------
2019-05-21 12.0 16.3 6.5 3.5-- 8.0 1.0---- 27.0------------
2019-05-20 13.9 18.8 9.0 5.2-- 2.7 1.3---- 0.0------------
2019-05-19 14.7 21.3 6.0 1.3-- 1.3 0.7---- 2.6------------
2019-05-18 13.0 20.8 5.0 2.3-- 2.0 0.7---- 0.0------------
2019-05-17 11.2 17.3 4.5 1.6-- 5.3 0.3---- 0.0------------
2019-05-16 8.3 15.3 2.5 0.8-- 5.3 0.3---- 0.0------------
2019-05-15 2.6 4.8 1.0 -0.2-- 8.0 0.0---- 10.4------------
2019-05-14 1.5 3.2 0.0 -0.2-- 8.0 0.0---- 23.7------------
2019-05-13 4.1 7.3 2.3 1.8-- 8.0 0.7---- 11.9------------
2019-05-12 11.3 17.8 6.3 4.7-- 8.0 0.7---- 23.5------------
2019-05-11 10.3 16.3 5.0 1.8-- 2.7 0.7---- 0.0------------
2019-05-10 9.4 14.8 2.5 -0.2-- 2.7 0.7---- 0.0------------
2019-05-09 7.1 10.3 5.5 4.7-- 8.0 1.3---- 10.4------------
2019-05-08 6.9 12.8 -1.5 -5.1-- 0.0 1.0---- 0.0------------
2019-05-07 4.3 8.3 1.0 -0.2-- 4.0 1.7---- 1.0------------
2019-05-06 2.6 5.3 0.0 0.3-- 8.0 1.7---- 0.0------------
2019-05-05 3.0 9.3 0.4 -0.2-- 8.0 0.3---- 17.0------------
2019-05-04 6.8 13.8 0.5 -3.1-- 5.3 0.7---- 2.8------------
2019-05-03 8.0 13.3 4.5 0.8-- 7.3 0.3---- 5.7------------
2019-05-02 12.3 17.0 9.4 2.7-- 5.3 1.7---- 0.0------------
2019-05-01 9.1 13.3 5.5 2.3-- 5.3----- 6.7------------
269.9 ms

 

Źródłem pochodzenia danych jest Instytut Meteorologii i Gospodarki Wodnej – Państwowy Instytut Badawczy. Dane Instytutu Meteorologii i Gospodarki Wodnej – Państwowego Instytutu Badawczego zostały przetworzone.

Dane źródłowe można odnaleźć na stronie https://dane.imgw.pl